Time;durP1;ratioP1;P1;durP2;ratioP2;P2;SDS_P1;SDS_P2;PMS_P1;PMS_P2;Temp;Humidity;BMP_temperature;BMP_pressure;BME280_temperature;BME280_humidity;BME280_pressure;Samples;Min_cycle;Max_cycle;Signal;HPM_P1;HPM_P2
2021/12/29 00:01:56;;;;;;;0.00;0.00;;;;;;;;;;6274222;22;19995;-70
2021/12/29 00:04:21;;;;;;;0.00;0.00;;;;;;;;;;6273471;22;20000;-71
2021/12/29 00:06:46;;;;;;;0.00;0.00;;;;;;;;;;6274326;22;20003;-71
2021/12/29 00:09:11;;;;;;;0.00;0.00;;;;;;;;;;6273826;22;20050;-71
2021/12/29 00:11:39;;;;;;;0.57;0.57;;;;;;;;;;6273638;22;20294;-70
2021/12/29 00:14:05;;;;;;;0.00;0.00;;;;;;;;;;6273858;22;19996;-70
2021/12/29 00:16:34;;;;;;;0.00;0.00;;;;;;;;;;6273588;22;20298;-70
2021/12/29 00:19:00;;;;;;;0.00;0.00;;;;;;;;;;6274188;22;20322;-71
2021/12/29 00:21:26;;;;;;;0.00;0.00;;;;;;;;;;6273782;22;20000;-71
2021/12/29 00:23:51;;;;;;;0.00;0.00;;;;;;;;;;6273921;22;20000;-71
2021/12/29 00:26:17;;;;;;;0.00;0.00;;;;;;;;;;6273214;22;20341;-71
2021/12/29 00:28:43;;;;;;;0.00;0.00;;;;;;;;;;6273558;22;20024;-71
2021/12/29 00:31:09;;;;;;;0.00;0.00;;;;;;;;;;6274039;22;19999;-71
2021/12/29 00:33:34;;;;;;;0.13;0.13;;;;;;;;;;6272980;22;20049;-69
2021/12/29 00:35:59;;;;;;;0.00;0.00;;;;;;;;;;6273604;22;20007;-70
2021/12/29 00:38:24;;;;;;;0.00;0.00;;;;;;;;;;6271947;22;20004;-69
2021/12/29 00:40:50;;;;;;;0.00;0.00;;;;;;;;;;6273910;22;20063;-69
2021/12/29 00:43:15;;;;;;;0.00;0.00;;;;;;;;;;6274106;22;20006;-69
2021/12/29 00:45:40;;;;;;;0.00;0.00;;;;;;;;;;6272934;22;20022;-71
2021/12/29 00:48:10;;;;;;;0.00;0.00;;;;;;;;;;6274155;22;20348;-70
2021/12/29 00:50:35;;;;;;;;;;;;;;;;;;6273723;22;20004;-70
2021/12/29 00:53:00;;;;;;;0.00;0.00;;;;;;;;;;6273619;22;19921;-71
2021/12/29 00:55:26;;;;;;;0.00;0.00;;;;;;;;;;6273077;22;20425;-71
2021/12/29 00:57:51;;;;;;;0.00;0.00;;;;;;;;;;6273968;22;20420;-71
2021/12/29 01:00:18;;;;;;;0.00;0.00;;;;;;;;;;6273542;22;20457;-72
2021/12/29 01:02:44;;;;;;;0.00;0.00;;;;;;;;;;6272272;22;20462;-71
2021/12/29 01:05:09;;;;;;;0.13;0.13;;;;;;;;;;6273200;22;20027;-71
2021/12/29 01:07:35;;;;;;;0.00;0.00;;;;;;;;;;6272565;22;20014;-71
2021/12/29 01:10:02;;;;;;;0.00;0.00;;;;;;;;;;6273442;22;20007;-71
2021/12/29 01:12:27;;;;;;;0.00;0.00;;;;;;;;;;6273208;22;20364;-71
2021/12/29 01:14:55;;;;;;;0.00;0.00;;;;;;;;;;6273268;22;19999;-71
2021/12/29 01:17:21;;;;;;;0.00;0.00;;;;;;;;;;6273589;22;20008;-71
2021/12/29 01:19:47;;;;;;;0.00;0.00;;;;;;;;;;6272892;22;19996;-72
2021/12/29 01:22:12;;;;;;;0.00;0.00;;;;;;;;;;6273277;22;20003;-71
2021/12/29 01:24:37;;;;;;;0.00;0.00;;;;;;;;;;6272640;22;20003;-70
2021/12/29 01:27:03;;;;;;;0.00;0.00;;;;;;;;;;6273246;22;20026;-71
2021/12/29 01:29:29;;;;;;;0.10;0.10;;;;;;;;;;6272835;22;20086;-70
2021/12/29 01:31:55;;;;;;;0.00;0.00;;;;;;;;;;6273050;22;20003;-69
2021/12/29 01:34:20;;;;;;;0.00;0.00;;;;;;;;;;6273331;22;20437;-70
2021/12/29 01:36:46;;;;;;;0.00;0.00;;;;;;;;;;6272569;22;19992;-70
2021/12/29 01:39:15;;;;;;;0.00;0.00;;;;;;;;;;6272747;22;20008;-70
2021/12/29 01:41:41;;;;;;;0.85;0.85;;;;;;;;;;6272848;22;20368;-70
2021/12/29 01:44:08;;;;;;;0.00;0.00;;;;;;;;;;6273121;22;20402;-70
2021/12/29 01:46:34;;;;;;;0.00;0.00;;;;;;;;;;6272691;22;20236;-69
2021/12/29 01:48:59;;;;;;;0.00;0.00;;;;;;;;;;6273414;22;20003;-70
2021/12/29 01:51:25;;;;;;;0.00;0.00;;;;;;;;;;6272553;22;20004;-69
2021/12/29 01:56:34;;;;;;;1.25;0.65;;;;;;;;;;6272564;22;20006;-70
2021/12/29 01:58:59;;;;;;;0.00;0.00;;;;;;;;;;6272444;22;20019;-69
2021/12/29 02:01:24;;;;;;;0.00;0.00;;;;;;;;;;6272504;22;20010;-69
2021/12/29 02:03:52;;;;;;;0.00;0.00;;;;;;;;;;6273416;22;20000;-70
2021/12/29 02:06:17;;;;;;;0.52;0.00;;;;;;;;;;6272875;22;20326;-70
2021/12/29 02:08:43;;;;;;;0.00;0.00;;;;;;;;;;6272414;22;20006;-70
2021/12/29 02:11:08;;;;;;;0.00;0.00;;;;;;;;;;6272829;22;20067;-70
2021/12/29 02:13:33;;;;;;;2.83;2.72;;;;;;;;;;6245264;22;19992;-70
2021/12/29 02:15:59;;;;;;;0.00;0.00;;;;;;;;;;6272737;22;20000;-70
2021/12/29 02:18:25;;;;;;;0.00;0.00;;;;;;;;;;6272311;22;20422;-70
2021/12/29 02:20:53;;;;;;;0.00;0.00;;;;;;;;;;6272806;22;20052;-70
2021/12/29 02:23:30;;;;;;;0.00;0.00;;;;;;;;;;6272390;22;20410;-70
2021/12/29 02:25:57;;;;;;;0.00;0.00;;;;;;;;;;6272353;22;20015;-69
2021/12/29 02:28:32;;;;;;;0.00;0.00;;;;;;;;;;6272294;22;20002;-70
2021/12/29 02:30:59;;;;;;;0.00;0.00;;;;;;;;;;6245710;22;20007;-70
2021/12/29 02:33:25;;;;;;;0.03;0.03;;;;;;;;;;6272278;22;19999;-69
2021/12/29 02:35:50;;;;;;;0.00;0.00;;;;;;;;;;6272162;22;20003;-70
2021/12/29 02:38:17;;;;;;;0.30;0.00;;;;;;;;;;6245072;22;19996;-69
2021/12/29 02:40:42;;;;;;;0.10;0.10;;;;;;;;;;6271987;22;19996;-70
2021/12/29 02:43:07;;;;;;;0.28;0.00;;;;;;;;;;6272583;22;20429;-69
2021/12/29 02:45:34;;;;;;;0.08;0.08;;;;;;;;;;6271797;22;20067;-69
2021/12/29 02:47:59;;;;;;;0.35;0.35;;;;;;;;;;6272724;22;20000;-70
2021/12/29 02:50:24;;;;;;;0.00;0.00;;;;;;;;;;6272587;22;20604;-70
2021/12/29 02:52:49;;;;;;;0.00;0.00;;;;;;;;;;6271244;22;20054;-70
2021/12/29 02:55:15;;;;;;;0.00;0.00;;;;;;;;;;6272519;22;20004;-70
2021/12/29 02:57:40;;;;;;;0.00;0.00;;;;;;;;;;6271283;22;19999;-70
2021/12/29 03:00:06;;;;;;;0.00;0.00;;;;;;;;;;6272468;22;20026;-69
2021/12/29 03:02:31;;;;;;;0.85;0.85;;;;;;;;;;6272114;22;20045;-69
2021/12/29 03:04:58;;;;;;;0.00;0.00;;;;;;;;;;6272347;22;20409;-69
2021/12/29 03:07:23;;;;;;;0.00;0.00;;;;;;;;;;6272831;22;20068;-69
2021/12/29 03:09:48;;;;;;;0.00;0.00;;;;;;;;;;6271913;22;20004;-70
2021/12/29 03:12:13;;;;;;;0.00;0.00;;;;;;;;;;6272187;22;20003;-70
2021/12/29 03:14:48;;;;;;;0.00;0.00;;;;;;;;;;6271495;22;20000;-70
2021/12/29 03:17:13;;;;;;;0.00;0.00;;;;;;;;;;6272401;22;19999;-70
2021/12/29 03:19:38;;;;;;;0.00;0.00;;;;;;;;;;6271704;22;19996;-70
2021/12/29 03:22:04;;;;;;;0.00;0.00;;;;;;;;;;6272618;22;20003;-70
2021/12/29 03:24:29;;;;;;;0.00;0.00;;;;;;;;;;6271588;22;20003;-69
2021/12/29 03:26:54;;;;;;;0.00;0.00;;;;;;;;;;6271840;22;20097;-70
2021/12/29 03:29:19;;;;;;;0.00;0.00;;;;;;;;;;6272015;22;20000;-70
2021/12/29 03:31:45;;;;;;;0.00;0.00;;;;;;;;;;6273563;22;20061;-70
2021/12/29 03:34:10;;;;;;;0.00;0.00;;;;;;;;;;6274756;22;20007;-69
2021/12/29 03:36:35;;;;;;;0.00;0.00;;;;;;;;;;6273302;22;20000;-69
2021/12/29 03:39:00;;;;;;;0.00;0.00;;;;;;;;;;6273978;22;20382;-69
2021/12/29 03:41:29;;;;;;;0.00;0.00;;;;;;;;;;6274421;22;20071;-69
2021/12/29 03:43:54;;;;;;;0.00;0.00;;;;;;;;;;6274229;22;19996;-69
2021/12/29 03:46:19;;;;;;;0.00;0.00;;;;;;;;;;6274274;22;20440;-69
2021/12/29 03:48:45;;;;;;;0.00;0.00;;;;;;;;;;6273839;22;20006;-69
2021/12/29 03:51:11;;;;;;;0.00;0.00;;;;;;;;;;6274299;22;20000;-69
2021/12/29 03:53:37;;;;;;;0.00;0.00;;;;;;;;;;6273548;22;20065;-69
2021/12/29 03:56:02;;;;;;;0.00;0.00;;;;;;;;;;6273599;22;20007;-70
2021/12/29 03:58:28;;;;;;;0.00;0.00;;;;;;;;;;6274093;22;19999;-69
2021/12/29 04:01:04;;;;;;;0.00;0.00;;;;;;;;;;6273643;22;20003;-69
2021/12/29 04:03:30;;;;;;;0.00;0.00;;;;;;;;;;6273921;22;20006;-70
2021/12/29 04:05:55;;;;;;;0.00;0.00;;;;;;;;;;6273774;22;20000;-70
2021/12/29 04:08:20;;;;;;;0.00;0.00;;;;;;;;;;6273606;22;20353;-69
2021/12/29 04:10:46;;;;;;;0.00;0.00;;;;;;;;;;6273608;22;19996;-70
2021/12/29 04:13:11;;;;;;;0.10;0.10;;;;;;;;;;6274148;22;20008;-71
2021/12/29 04:15:37;;;;;;;0.93;0.38;;;;;;;;;;6273527;22;19991;-69
2021/12/29 04:18:04;;;;;;;0.00;0.00;;;;;;;;;;6273848;22;19995;-70
2021/12/29 04:23:15;;;;;;;0.00;0.00;;;;;;;;;;6273042;22;20056;-70
2021/12/29 04:25:41;;;;;;;0.00;0.00;;;;;;;;;;6273057;22;20102;-70
2021/12/29 04:28:10;;;;;;;0.00;0.00;;;;;;;;;;6273948;22;20277;-69
2021/12/29 04:30:36;;;;;;;0.00;0.00;;;;;;;;;;6273390;22;20075;-70
2021/12/29 04:33:01;;;;;;;0.00;0.00;;;;;;;;;;6273708;22;20851;-70
2021/12/29 04:35:26;;;;;;;0.00;0.00;;;;;;;;;;6273725;22;20019;-70
2021/12/29 04:37:52;;;;;;;0.00;0.00;;;;;;;;;;6273264;22;20071;-71
2021/12/29 04:40:18;;;;;;;0.00;0.00;;;;;;;;;;6273594;22;19999;-70
2021/12/29 04:42:43;;;;;;;0.00;0.00;;;;;;;;;;6272445;22;20345;-70
2021/12/29 04:45:08;;;;;;;0.00;0.00;;;;;;;;;;6273613;22;19999;-69
2021/12/29 04:47:38;;;;;;;0.00;0.00;;;;;;;;;;6273212;22;20441;-70
2021/12/29 04:50:04;;;;;;;1.55;1.45;;;;;;;;;;6274008;22;20002;-69
2021/12/29 04:52:30;;;;;;;0.00;0.00;;;;;;;;;;6272917;22;20082;-69
2021/12/29 04:54:56;;;;;;;1.08;1.02;;;;;;;;;;6272756;22;20022;-69
2021/12/29 04:57:21;;;;;;;0.00;0.00;;;;;;;;;;6273850;22;19992;-69
2021/12/29 04:59:46;;;;;;;0.00;0.00;;;;;;;;;;6273215;22;20346;-70
2021/12/29 05:02:12;;;;;;;0.00;0.00;;;;;;;;;;6273084;22;19995;-70
2021/12/29 05:04:45;;;;;;;0.00;0.00;;;;;;;;;;6273029;22;20008;-69
2021/12/29 05:09:55;;;;;;;0.00;0.00;;;;;;;;;;6272566;22;20098;-68
2021/12/29 05:12:20;;;;;;;0.00;0.00;;;;;;;;;;6273127;22;20035;-68
2021/12/29 05:14:45;;;;;;;0.00;0.00;;;;;;;;;;6272894;22;20010;-69
2021/12/29 05:17:10;;;;;;;0.00;0.00;;;;;;;;;;6273551;22;20036;-69
2021/12/29 05:19:36;;;;;;;0.00;0.00;;;;;;;;;;6272707;22;20042;-69
2021/12/29 05:22:02;;;;;;;0.00;0.00;;;;;;;;;;6272655;22;20003;-69
2021/12/29 05:24:27;;;;;;;0.00;0.00;;;;;;;;;;6273095;22;20011;-69
2021/12/29 05:26:52;;;;;;;0.00;0.00;;;;;;;;;;6272642;22;20015;-69
2021/12/29 05:29:18;;;;;;;0.00;0.00;;;;;;;;;;6273457;22;19996;-69
2021/12/29 05:31:43;;;;;;;0.00;0.00;;;;;;;;;;6272977;22;20299;-69
2021/12/29 05:34:08;;;;;;;0.00;0.00;;;;;;;;;;6273453;22;19996;-69
2021/12/29 05:36:33;;;;;;;0.00;0.00;;;;;;;;;;6273250;22;20126;-69
2021/12/29 05:38:59;;;;;;;0.00;0.00;;;;;;;;;;6245401;22;20004;-70
2021/12/29 05:41:24;;;;;;;0.00;0.00;;;;;;;;;;6246163;22;19999;-69
2021/12/29 05:43:50;;;;;;;0.00;0.00;;;;;;;;;;6245654;22;20377;-69
2021/12/29 05:46:15;;;;;;;0.35;0.08;;;;;;;;;;6273389;22;20003;-70
2021/12/29 05:48:41;;;;;;;0.00;0.00;;;;;;;;;;6272638;22;20004;-69
2021/12/29 05:51:06;;;;;;;0.00;0.00;;;;;;;;;;6272647;22;19998;-69
2021/12/29 05:53:31;;;;;;;0.00;0.00;;;;;;;;;;6272239;22;20007;-69
2021/12/29 05:55:57;;;;;;;0.00;0.00;;;;;;;;;;6272409;22;20000;-69
2021/12/29 05:58:22;;;;;;;0.00;0.00;;;;;;;;;;6273040;22;19992;-70
2021/12/29 06:00:47;;;;;;;1.00;0.90;;;;;;;;;;6272512;22;20169;-69
2021/12/29 06:03:12;;;;;;;0.00;0.00;;;;;;;;;;6273099;22;20100;-69
2021/12/29 06:05:38;;;;;;;0.00;0.00;;;;;;;;;;6272431;22;20050;-69
2021/12/29 06:08:03;;;;;;;0.00;0.00;;;;;;;;;;6272990;22;20035;-70
2021/12/29 06:10:30;;;;;;;0.00;0.00;;;;;;;;;;6272509;22;20023;-70
2021/12/29 06:12:55;;;;;;;0.32;0.32;;;;;;;;;;6271969;22;20034;-70
2021/12/29 06:15:20;;;;;;;0.00;0.00;;;;;;;;;;6272646;22;20079;-71
2021/12/29 06:17:45;;;;;;;0.00;0.00;;;;;;;;;;6272424;22;19991;-70
2021/12/29 06:20:12;;;;;;;0.00;0.00;;;;;;;;;;6272675;22;19995;-71
2021/12/29 06:22:37;;;;;;;0.00;0.00;;;;;;;;;;6272311;22;19999;-71
2021/12/29 06:25:04;;;;;;;0.00;0.00;;;;;;;;;;6272634;22;20046;-71
2021/12/29 06:27:31;;;;;;;0.00;0.00;;;;;;;;;;6272508;22;20042;-72
2021/12/29 06:29:56;;;;;;;0.00;0.00;;;;;;;;;;6271835;22;20003;-70
2021/12/29 06:32:21;;;;;;;0.00;0.00;;;;;;;;;;6272622;22;20048;-70
2021/12/29 06:34:47;;;;;;;0.00;0.00;;;;;;;;;;6271971;22;20030;-70
2021/12/29 06:37:13;;;;;;;2.80;0.47;;;;;;;;;;6272913;22;20003;-70
2021/12/29 06:39:39;;;;;;;0.00;0.00;;;;;;;;;;6271813;22;20006;-70
2021/12/29 06:42:05;;;;;;;0.00;0.00;;;;;;;;;;6272749;22;20409;-70
2021/12/29 06:44:30;;;;;;;0.00;0.00;;;;;;;;;;6272716;22;20008;-71
2021/12/29 06:46:55;;;;;;;0.00;0.00;;;;;;;;;;6271248;22;20053;-71
2021/12/29 06:49:21;;;;;;;0.00;0.00;;;;;;;;;;6272399;22;20004;-71
2021/12/29 06:51:47;;;;;;;0.00;0.00;;;;;;;;;;6271966;22;20000;-71
2021/12/29 06:54:12;;;;;;;0.00;0.00;;;;;;;;;;6272216;22;20023;-70
2021/12/29 06:56:37;;;;;;;0.00;0.00;;;;;;;;;;6272216;22;20002;-69
2021/12/29 06:59:03;;;;;;;0.00;0.00;;;;;;;;;;6272602;22;20270;-69
2021/12/29 07:01:28;;;;;;;0.00;0.00;;;;;;;;;;6272333;22;20318;-69
2021/12/29 07:03:53;;;;;;;0.00;0.00;;;;;;;;;;6271561;22;20396;-69
2021/12/29 07:06:18;;;;;;;0.00;0.00;;;;;;;;;;6272009;22;19996;-70
2021/12/29 07:08:44;;;;;;;0.00;0.00;;;;;;;;;;6243239;22;20493;-70
2021/12/29 07:11:09;;;;;;;0.08;0.08;;;;;;;;;;6272057;22;20027;-70
2021/12/29 07:13:34;;;;;;;0.00;0.00;;;;;;;;;;6272380;22;20033;-70
2021/12/29 07:15:59;;;;;;;0.15;0.15;;;;;;;;;;6270861;22;20700;-69
2021/12/29 07:18:25;;;;;;;0.00;0.00;;;;;;;;;;6272267;22;19999;-70
2021/12/29 07:20:50;;;;;;;0.00;0.00;;;;;;;;;;6271327;22;20000;-70
2021/12/29 07:23:15;;;;;;;0.00;0.00;;;;;;;;;;6272010;22;20003;-70
2021/12/29 07:25:40;;;;;;;0.00;0.00;;;;;;;;;;6270957;22;20016;-71
2021/12/29 07:28:06;;;;;;;0.00;0.00;;;;;;;;;;6272559;22;19999;-70
2021/12/29 07:30:31;;;;;;;0.10;0.10;;;;;;;;;;6272081;22;20000;-70
2021/12/29 07:32:56;;;;;;;0.00;0.00;;;;;;;;;;6271138;22;20026;-71
2021/12/29 07:35:22;;;;;;;0.00;0.00;;;;;;;;;;6272212;22;20049;-70
2021/12/29 07:37:47;;;;;;;0.00;0.00;;;;;;;;;;6271015;22;20004;-71
2021/12/29 07:40:12;;;;;;;0.00;0.00;;;;;;;;;;6271772;22;20422;-69
2021/12/29 07:42:39;;;;;;;0.00;0.00;;;;;;;;;;6271266;22;19999;-70
2021/12/29 07:45:07;;;;;;;0.00;0.00;;;;;;;;;;6271175;22;20079;-69
2021/12/29 07:47:33;;;;;;;0.00;0.00;;;;;;;;;;6271470;22;20024;-70
2021/12/29 07:49:59;;;;;;;0.00;0.00;;;;;;;;;;6270113;22;20003;-70
2021/12/29 07:52:24;;;;;;;0.00;0.00;;;;;;;;;;6270646;22;20012;-70
2021/12/29 07:54:49;;;;;;;0.00;0.00;;;;;;;;;;6270039;22;20425;-70
2021/12/29 07:57:14;;;;;;;0.00;0.00;;;;;;;;;;6270926;22;20676;-70
2021/12/29 07:59:40;;;;;;;0.00;0.00;;;;;;;;;;6270776;22;20133;-69
2021/12/29 08:02:06;;;;;;;0.00;0.00;;;;;;;;;;6243314;22;20008;-69
2021/12/29 08:04:31;;;;;;;0.32;0.32;;;;;;;;;;6271031;22;20118;-70
2021/12/29 08:06:56;;;;;;;0.00;0.00;;;;;;;;;;6242890;22;20027;-69
2021/12/29 08:09:21;;;;;;;0.00;0.00;;;;;;;;;;6270525;22;20051;-70
2021/12/29 08:11:47;;;;;;;0.00;0.00;;;;;;;;;;6270391;22;20004;-69
2021/12/29 08:14:12;;;;;;;0.00;0.00;;;;;;;;;;6269777;22;20433;-69
2021/12/29 08:16:38;;;;;;;0.00;0.00;;;;;;;;;;6271626;22;19995;-68
2021/12/29 08:19:03;;;;;;;0.43;0.43;;;;;;;;;;6272131;22;19992;-68
2021/12/29 08:21:28;;;;;;;0.00;0.00;;;;;;;;;;6271986;22;20076;-68
2021/12/29 08:23:54;;;;;;;0.00;0.00;;;;;;;;;;6271631;22;20000;-69
2021/12/29 08:26:20;;;;;;;3.75;0.28;;;;;;;;;;6271872;22;20015;-69
2021/12/29 08:28:45;;;;;;;0.00;0.00;;;;;;;;;;6272092;22;20006;-69
2021/12/29 08:31:10;;;;;;;0.00;0.00;;;;;;;;;;6272077;22;20006;-69
2021/12/29 08:33:38;;;;;;;0.00;0.00;;;;;;;;;;6272115;22;20038;-69
2021/12/29 08:36:03;;;;;;;0.00;0.00;;;;;;;;;;6272060;22;20004;-68
2021/12/29 08:38:28;;;;;;;0.00;0.00;;;;;;;;;;6273176;22;20436;-69
2021/12/29 08:40:54;;;;;;;0.00;0.00;;;;;;;;;;6273058;22;20045;-69
2021/12/29 08:43:19;;;;;;;0.00;0.00;;;;;;;;;;6272582;22;19999;-70
2021/12/29 08:45:46;;;;;;;0.00;0.00;;;;;;;;;;6273019;22;20634;-70
2021/12/29 08:48:12;;;;;;;0.00;0.00;;;;;;;;;;6272749;22;19995;-69
2021/12/29 08:50:37;;;;;;;0.00;0.00;;;;;;;;;;6272822;22;20087;-70
2021/12/29 08:53:03;;;;;;;0.00;0.00;;;;;;;;;;6273082;22;19996;-68
2021/12/29 08:55:29;;;;;;;0.00;0.00;;;;;;;;;;6271406;22;20085;-69
2021/12/29 08:57:54;;;;;;;0.00;0.00;;;;;;;;;;6271209;22;19996;-69
2021/12/29 09:00:20;;;;;;;0.43;0.43;;;;;;;;;;6273313;22;20000;-69
2021/12/29 09:02:45;;;;;;;0.13;0.13;;;;;;;;;;6272501;22;19999;-70
2021/12/29 09:05:11;;;;;;;0.30;0.30;;;;;;;;;;6272811;22;20010;-69
2021/12/29 09:07:36;;;;;;;0.00;0.00;;;;;;;;;;6273729;22;20007;-69
2021/12/29 09:10:04;;;;;;;0.00;0.00;;;;;;;;;;6272511;22;20413;-69
2021/12/29 09:12:29;;;;;;;0.00;0.00;;;;;;;;;;6272595;22;20418;-69
2021/12/29 09:14:54;;;;;;;0.00;0.00;;;;;;;;;;6272499;22;20006;-69
2021/12/29 09:17:20;;;;;;;0.00;0.00;;;;;;;;;;6273123;22;19995;-70
2021/12/29 09:19:45;;;;;;;0.00;0.00;;;;;;;;;;6272895;22;20006;-69
2021/12/29 09:22:11;;;;;;;0.00;0.00;;;;;;;;;;6273044;22;19996;-69
2021/12/29 09:24:36;;;;;;;0.00;0.00;;;;;;;;;;6272790;22;20023;-69
2021/12/29 09:27:02;;;;;;;0.00;0.00;;;;;;;;;;6272360;22;20042;-69
2021/12/29 09:29:27;;;;;;;0.00;0.00;;;;;;;;;;6273205;22;20451;-69
2021/12/29 09:31:52;;;;;;;0.00;0.00;;;;;;;;;;6272241;22;19996;-70
2021/12/29 09:34:17;;;;;;;0.00;0.00;;;;;;;;;;6273184;22;19999;-69
2021/12/29 09:36:43;;;;;;;0.00;0.00;;;;;;;;;;6272804;22;20142;-69
2021/12/29 09:39:08;;;;;;;0.00;0.00;;;;;;;;;;6272789;22;20008;-69
2021/12/29 09:41:37;;;;;;;0.00;0.00;;;;;;;;;;6272391;22;19992;-69
2021/12/29 09:44:02;;;;;;;0.00;0.00;;;;;;;;;;6272515;22;20082;-69
2021/12/29 09:46:28;;;;;;;0.00;0.00;;;;;;;;;;6272973;22;20349;-69
2021/12/29 09:48:53;;;;;;;0.00;0.00;;;;;;;;;;6272647;22;19991;-70
2021/12/29 09:51:18;;;;;;;0.00;0.00;;;;;;;;;;6272946;22;20405;-69
2021/12/29 09:53:44;;;;;;;0.10;0.10;;;;;;;;;;6271972;22;20004;-69
2021/12/29 09:56:10;;;;;;;0.00;0.00;;;;;;;;;;6272444;22;19998;-69
2021/12/29 09:58:35;;;;;;;0.10;0.10;;;;;;;;;;6272887;22;20436;-69
2021/12/29 10:01:04;;;;;;;0.00;0.00;;;;;;;;;;6271769;22;20475;-69
2021/12/29 10:03:29;;;;;;;0.08;0.08;;;;;;;;;;6272705;22;20181;-69
2021/12/29 10:05:57;;;;;;;0.35;0.35;;;;;;;;;;6272010;22;20413;-69
2021/12/29 10:08:28;;;;;;;0.00;0.00;;;;;;;;;;6272638;22;20007;-69
2021/12/29 10:10:54;;;;;;;0.10;0.10;;;;;;;;;;6243566;22;20003;-69
2021/12/29 10:13:20;;;;;;;0.00;0.00;;;;;;;;;;6272880;22;20294;-69
2021/12/29 10:15:46;;;;;;;0.00;0.00;;;;;;;;;;6272154;22;20003;-70
2021/12/29 10:18:12;;;;;;;0.00;0.00;;;;;;;;;;6271911;22;20011;-68
2021/12/29 10:20:51;;;;;;;0.00;0.00;;;;;;;;;;6272432;22;20364;-69
2021/12/29 10:23:27;;;;;;;0.00;0.00;;;;;;;;;;6272829;22;20003;-70
2021/12/29 10:25:52;;;;;;;0.00;0.00;;;;;;;;;;6271553;22;20024;-69
2021/12/29 10:28:28;;;;;;;0.00;0.00;;;;;;;;;;6272729;22;20075;-70
2021/12/29 10:30:58;;;;;;;0.00;0.00;;;;;;;;;;6271783;22;19996;-70
2021/12/29 10:33:23;;;;;;;0.40;0.40;;;;;;;;;;6272246;22;20028;-70
2021/12/29 10:35:49;;;;;;;0.00;0.00;;;;;;;;;;6271460;22;19996;-70
2021/12/29 10:38:15;;;;;;;0.00;0.00;;;;;;;;;;6272440;22;20023;-70
2021/12/29 10:40:41;;;;;;;0.00;0.00;;;;;;;;;;6271782;22;20045;-70
2021/12/29 10:43:06;;;;;;;0.00;0.00;;;;;;;;;;6271749;22;20003;-70
2021/12/29 10:45:33;;;;;;;0.00;0.00;;;;;;;;;;6272549;22;19999;-70
2021/12/29 10:47:59;;;;;;;0.00;0.00;;;;;;;;;;6271939;22;19995;-70
2021/12/29 10:50:26;;;;;;;0.00;0.00;;;;;;;;;;6271842;22;20006;-68
2021/12/29 10:52:54;;;;;;;0.00;0.00;;;;;;;;;;6244375;22;20082;-69
2021/12/29 10:55:19;;;;;;;0.00;0.00;;;;;;;;;;6272030;22;19996;-69
2021/12/29 10:57:45;;;;;;;0.25;0.25;;;;;;;;;;6272570;22;19996;-69
2021/12/29 11:00:15;;;;;;;0.00;0.00;;;;;;;;;;6271803;22;20008;-69
2021/12/29 11:02:42;;;;;;;0.00;0.00;;;;;;;;;;6271947;22;20425;-69
2021/12/29 11:05:08;;;;;;;0.00;0.00;;;;;;;;;;6271731;22;20104;-69
2021/12/29 11:07:35;;;;;;;0.00;0.00;;;;;;;;;;6271159;22;20356;-69
2021/12/29 11:10:15;;;;;;;0.00;0.00;;;;;;;;;;6271464;22;20426;-69
2021/12/29 11:12:47;;;;;;;0.00;0.00;;;;;;;;;;6272018;22;20010;-69
2021/12/29 11:15:24;;;;;;;0.00;0.00;;;;;;;;;;6272255;22;20432;-69
2021/12/29 11:17:50;;;;;;;0.00;0.00;;;;;;;;;;6271562;22;19992;-69
2021/12/29 11:20:19;;;;;;;0.00;0.00;;;;;;;;;;6272290;22;20334;-69
2021/12/29 11:22:45;;;;;;;0.00;0.00;;;;;;;;;;6272026;22;20010;-69
2021/12/29 11:25:10;;;;;;;0.98;0.95;;;;;;;;;;6270951;22;19999;-69
2021/12/29 11:27:35;;;;;;;0.20;0.20;;;;;;;;;;6272028;22;20043;-68
2021/12/29 11:30:04;;;;;;;0.00;0.00;;;;;;;;;;6272458;22;20003;-68
2021/12/29 11:32:29;;;;;;;0.00;0.00;;;;;;;;;;6272449;22;20018;-68
2021/12/29 11:35:03;;;;;;;0.00;0.00;;;;;;;;;;6271128;22;20414;-68
2021/12/29 11:37:28;;;;;;;0.05;0.05;;;;;;;;;;6244560;22;20034;-68
2021/12/29 11:39:54;;;;;;;0.00;0.00;;;;;;;;;;6271570;22;20380;-69
2021/12/29 11:42:20;;;;;;;0.00;0.00;;;;;;;;;;6272715;22;20031;-68
2021/12/29 11:44:46;;;;;;;0.00;0.00;;;;;;;;;;6272387;22;20007;-68
2021/12/29 11:47:11;;;;;;;0.22;0.22;;;;;;;;;;6271778;22;20030;-69
2021/12/29 11:49:37;;;;;;;0.10;0.10;;;;;;;;;;6271825;22;20283;-68
2021/12/29 11:52:05;;;;;;;0.00;0.00;;;;;;;;;;6273456;22;20087;-69
2021/12/29 11:54:41;;;;;;;0.00;0.00;;;;;;;;;;6273244;22;20329;-69
2021/12/29 11:57:13;;;;;;;0.10;0.10;;;;;;;;;;6273465;22;19996;-69
2021/12/29 11:59:38;;;;;;;0.00;0.00;;;;;;;;;;6273887;22;19996;-69
2021/12/29 12:02:04;;;;;;;0.00;0.00;;;;;;;;;;6273633;22;20000;-69
2021/12/29 12:04:29;;;;;;;0.00;0.00;;;;;;;;;;6273197;22;20304;-69
2021/12/29 12:07:05;;;;;;;0.82;0.10;;;;;;;;;;6273190;22;20410;-68
2021/12/29 12:09:43;;;;;;;0.00;0.00;;;;;;;;;;6273421;22;20007;-68
2021/12/29 12:12:08;;;;;;;0.00;0.00;;;;;;;;;;6273238;22;20007;-69
2021/12/29 12:14:36;;;;;;;0.00;0.00;;;;;;;;;;6273434;22;20078;-68
2021/12/29 12:17:06;;;;;;;0.57;0.22;;;;;;;;;;6273079;22;19996;-68
2021/12/29 12:19:31;;;;;;;0.00;0.00;;;;;;;;;;6273193;22;20325;-69
2021/12/29 12:22:05;;;;;;;0.00;0.00;;;;;;;;;;6272922;22;19999;-68
2021/12/29 12:24:30;;;;;;;0.00;0.00;;;;;;;;;;6272934;22;20071;-68
2021/12/29 12:26:58;;;;;;;0.00;0.00;;;;;;;;;;6272384;22;20027;-68
2021/12/29 12:29:25;;;;;;;0.00;0.00;;;;;;;;;;6273663;22;20027;-68
2021/12/29 12:31:59;;;;;;;0.00;0.00;;;;;;;;;;6273086;22;20006;-69
2021/12/29 12:34:25;;;;;;;0.00;0.00;;;;;;;;;;6271579;22;20039;-68
2021/12/29 12:36:50;;;;;;;0.00;0.00;;;;;;;;;;6272571;22;20000;-68
2021/12/29 12:39:16;;;;;;;0.00;0.00;;;;;;;;;;6272028;22;20095;-67
2021/12/29 12:41:42;;;;;;;0.00;0.00;;;;;;;;;;6272981;22;19995;-67
2021/12/29 12:44:08;;;;;;;0.00;0.00;;;;;;;;;;6272538;22;20417;-67
2021/12/29 12:46:47;;;;;;;0.00;0.00;;;;;;;;;;6272927;22;19999;-67
2021/12/29 12:49:16;;;;;;;0.00;0.00;;;;;;;;;;6272443;22;20340;-67
2021/12/29 12:51:41;;;;;;;;;;;;;;;;;;6273285;22;20000;-68
2021/12/29 12:54:16;;;;;;;0.00;0.00;;;;;;;;;;6273336;22;20356;-67
2021/12/29 12:56:44;;;;;;;0.00;0.00;;;;;;;;;;6273032;22;20002;-68
2021/12/29 12:59:10;;;;;;;0.00;0.00;;;;;;;;;;6272451;22;20077;-68
2021/12/29 13:01:42;;;;;;;0.10;0.10;;;;;;;;;;6270978;22;20469;-67
2021/12/29 13:04:08;;;;;;;0.00;0.00;;;;;;;;;;6271899;22;20026;-67
2021/12/29 13:06:35;;;;;;;0.00;0.00;;;;;;;;;;6273498;22;20396;-68
2021/12/29 13:09:01;;;;;;;0.00;0.00;;;;;;;;;;6272890;22;20011;-68
2021/12/29 13:11:32;;;;;;;2.10;1.27;;;;;;;;;;6272855;22;20142;-68
2021/12/29 13:13:59;;;;;;;0.00;0.00;;;;;;;;;;6272465;22;20074;-68
2021/12/29 13:16:25;;;;;;;0.05;0.05;;;;;;;;;;6272334;22;19991;-68
2021/12/29 13:18:51;;;;;;;0.00;0.00;;;;;;;;;;6271935;22;20023;-67
2021/12/29 13:21:25;;;;;;;0.03;0.03;;;;;;;;;;6272249;22;20046;-68
2021/12/29 13:23:51;;;;;;;0.00;0.00;;;;;;;;;;6273458;22;20421;-71
2021/12/29 13:26:16;;;;;;;0.00;0.00;;;;;;;;;;6272160;22;20016;-71
2021/12/29 13:28:42;;;;;;;0.00;0.00;;;;;;;;;;6273351;22;20011;-70
2021/12/29 13:31:09;;;;;;;1.48;0.10;;;;;;;;;;6272601;22;20035;-70
2021/12/29 13:33:36;;;;;;;0.00;0.00;;;;;;;;;;6272936;22;20007;-71
2021/12/29 13:36:03;;;;;;;0.00;0.00;;;;;;;;;;6271742;22;20012;-69
2021/12/29 13:38:31;;;;;;;0.00;0.00;;;;;;;;;;6271932;22;20709;-69
2021/12/29 13:40:58;;;;;;;0.30;0.30;;;;;;;;;;6271328;22;20790;-69
2021/12/29 13:43:25;;;;;;;0.00;0.00;;;;;;;;;;6272160;22;20420;-69
2021/12/29 13:45:55;;;;;;;0.00;0.00;;;;;;;;;;6272126;22;20003;-69
2021/12/29 13:48:23;;;;;;;0.17;0.17;;;;;;;;;;6272091;22;20010;-69
2021/12/29 13:50:58;;;;;;;0.00;0.00;;;;;;;;;;6272160;22;20007;-69
2021/12/29 13:53:24;;;;;;;0.00;0.00;;;;;;;;;;6245077;22;20030;-68
2021/12/29 13:55:50;;;;;;;0.00;0.00;;;;;;;;;;6271525;22;20429;-69
2021/12/29 13:58:16;;;;;;;0.00;0.00;;;;;;;;;;6271402;22;20064;-69
2021/12/29 14:00:42;;;;;;;0.00;0.00;;;;;;;;;;6271537;22;20045;-69
2021/12/29 14:03:07;;;;;;;0.00;0.00;;;;;;;;;;6271306;22;20003;-69
2021/12/29 14:05:37;;;;;;;0.20;0.20;;;;;;;;;;6271513;22;20015;-68
2021/12/29 14:08:03;;;;;;;0.00;0.00;;;;;;;;;;6271172;22;20315;-69
2021/12/29 14:10:29;;;;;;;0.00;0.00;;;;;;;;;;6271765;22;20007;-68
2021/12/29 14:13:02;;;;;;;0.00;0.00;;;;;;;;;;6270435;22;20007;-68
2021/12/29 14:15:29;;;;;;;0.00;0.00;;;;;;;;;;6244425;22;20006;-65
2021/12/29 14:17:57;;;;;;;0.00;0.00;;;;;;;;;;6271198;22;20007;-66
2021/12/29 14:20:24;;;;;;;0.00;0.00;;;;;;;;;;6271616;22;19996;-68
2021/12/29 14:23:00;;;;;;;0.00;0.00;;;;;;;;;;6272386;22;20125;-68
2021/12/29 14:25:25;;;;;;;0.00;0.00;;;;;;;;;;6272202;22;20015;-66
2021/12/29 14:27:53;;;;;;;0.05;0.05;;;;;;;;;;6272468;22;20008;-66
2021/12/29 14:30:22;;;;;;;0.00;0.00;;;;;;;;;;6271086;22;20014;-69
2021/12/29 14:32:47;;;;;;;;;;;;;;;;;;6273218;22;20019;-65
2021/12/29 14:35:12;;;;;;;0.00;0.00;;;;;;;;;;6272048;22;19922;-68
2021/12/29 14:37:38;;;;;;;0.35;0.35;;;;;;;;;;6272925;22;20007;-66
2021/12/29 14:40:03;;;;;;;0.00;0.00;;;;;;;;;;6271598;22;20006;-68
2021/12/29 14:42:35;;;;;;;0.00;0.00;;;;;;;;;;6272352;22;19996;-66
2021/12/29 14:45:07;;;;;;;0.00;0.00;;;;;;;;;;6271641;22;20348;-64
2021/12/29 14:47:32;;;;;;;0.00;0.00;;;;;;;;;;6272047;22;20077;-67